Terminal Aerodrome Forecast
Issued by NWS

Current Version | Previous Version | Graphics & Text | Print | Product List | Glossary On
Versions: 1 2 3 4 5 6 7 8 9 10 11 12 13 14 15 16 17 18
000
FTUS41 KILN 201124
TAFLUK
TAF
KLUK 201124Z 2012/2112 10003KT P6SM FEW060 SCT250
     FM201600 VRB05KT P6SM SCT040
     FM210100 00000KT P6SM SCT250
     FM210600 00000KT 4SM BR SCT250=

USA.gov is the U.S. government's official web portal to all federal, state and local government web resources and services.